Time;durP1;ratioP1;P1;durP2;ratioP2;P2;SDS_P1;SDS_P2;PMS_P1;PMS_P2;Temp;Humidity;BMP_temperature;BMP_pressure;BME280_temperature;BME280_humidity;BME280_pressure;Samples;Min_cycle;Max_cycle;Signal;HPM_P1;HPM_P2
2022/12/06 00:00:46;;;;;;;23.97;15.27;;;4.30;99.90;;;;;;5063140;28;20479;-69
2022/12/06 00:03:13;;;;;;;23.83;15.60;;;4.30;99.90;;;;;;5062724;28;20505;-67
2022/12/06 00:05:40;;;;;;;22.80;15.73;;;4.30;99.90;;;;;;5062364;28;20466;-68
2022/12/06 00:08:08;;;;;;;21.33;14.40;;;4.20;99.90;;;;;;5062055;28;20494;-68
2022/12/06 00:10:36;;;;;;;20.60;14.13;;;4.20;99.90;;;;;;5062521;28;20491;-68
2022/12/06 00:13:03;;;;;;;24.70;14.77;;;4.20;99.90;;;;;;5062618;28;20520;-67
2022/12/06 00:15:30;;;;;;;21.87;14.07;;;4.10;99.90;;;;;;5063193;28;20452;-68
2022/12/06 00:17:57;;;;;;;22.27;13.00;;;4.10;99.90;;;;;;5062469;28;20490;-68
2022/12/06 00:20:24;;;;;;;22.50;14.17;;;4.10;99.90;;;;;;5063070;28;20475;-69
2022/12/06 00:22:50;;;;;;;21.10;12.37;;;4.10;99.90;;;;;;5063730;28;20928;-68
2022/12/06 00:25:19;;;;;;;18.63;12.37;;;4.20;99.90;;;;;;5066336;28;20530;-68
2022/12/06 00:27:45;;;;;;;21.40;13.33;;;4.20;99.90;;;;;;5066141;28;20459;-69
2022/12/06 00:30:13;;;;;;;20.60;13.83;;;4.20;99.90;;;;;;5066491;28;20518;-68
2022/12/06 00:32:39;;;;;;;19.40;12.93;;;4.30;99.90;;;;;;5066864;28;20455;-68
2022/12/06 00:35:07;;;;;;;17.80;12.47;;;4.30;99.90;;;;;;5066540;28;20507;-68
2022/12/06 00:37:34;;;;;;;18.77;11.90;;;4.30;99.90;;;;;;5066708;28;20450;-68
2022/12/06 00:40:01;;;;;;;20.47;12.77;;;4.30;99.90;;;;;;5066704;28;20497;-68
2022/12/06 00:42:29;;;;;;;24.53;13.80;;;4.30;99.90;;;;;;5066748;28;20463;-68
2022/12/06 00:44:56;;;;;;;19.23;12.60;;;4.30;99.90;;;;;;5067033;28;20451;-68
2022/12/06 00:47:23;;;;;;;24.10;13.13;;;4.30;99.90;;;;;;5064136;28;20459;-69
2022/12/06 00:49:49;;;;;;;17.60;12.93;;;4.20;99.90;;;;;;5063937;28;20561;-68
2022/12/06 00:52:16;;;;;;;20.27;13.20;;;4.20;99.90;;;;;;5063391;28;20494;-68
2022/12/06 00:54:43;;;;;;;18.33;12.10;;;4.20;99.90;;;;;;5063461;28;20567;-68
2022/12/06 00:57:10;;;;;;;19.13;12.00;;;4.10;99.90;;;;;;5063437;28;20486;-68
2022/12/06 00:59:38;;;;;;;21.07;12.70;;;4.10;99.90;;;;;;5063551;28;20483;-68
2022/12/06 01:02:06;;;;;;;16.33;11.83;;;4.00;99.90;;;;;;5064709;28;20526;-67
2022/12/06 01:04:33;;;;;;;17.00;12.23;;;3.90;99.90;;;;;;5064572;28;20466;-69
2022/12/06 01:07:00;;;;;;;17.07;12.30;;;3.90;99.90;;;;;;5065500;28;20461;-69
2022/12/06 01:09:29;;;;;;;19.53;13.40;;;3.80;99.90;;;;;;5065116;28;20455;-69
2022/12/06 01:11:56;;;;;;;17.83;13.30;;;3.80;99.90;;;;;;5065673;28;20851;-68
2022/12/06 01:14:23;;;;;;;21.63;14.50;;;3.80;99.90;;;;;;5064918;28;21030;-70
2022/12/06 01:16:52;;;;;;;21.63;13.83;;;3.70;99.90;;;;;;5064885;28;20451;-69
2022/12/06 01:19:19;;;;;;;23.03;14.77;;;3.70;99.90;;;;;;5064558;28;20451;-68
2022/12/06 01:21:45;;;;;;;22.30;16.10;;;3.70;99.90;;;;;;5064150;28;20455;-68
2022/12/06 01:24:12;;;;;;;21.90;15.30;;;3.60;99.90;;;;;;5064328;28;20538;-69
2022/12/06 01:26:39;;;;;;;19.83;14.20;;;3.60;99.90;;;;;;5064464;28;20479;-69
2022/12/06 01:29:06;;;;;;;20.10;14.70;;;3.60;99.90;;;;;;5064317;28;20482;-68
2022/12/06 01:31:33;;;;;;;21.40;14.27;;;3.60;99.90;;;;;;5064034;28;20463;-69
2022/12/06 01:34:02;;;;;;;21.37;14.60;;;3.50;99.90;;;;;;5063590;28;20479;-68
2022/12/06 01:36:29;;;;;;;23.60;15.13;;;3.50;99.90;;;;;;5064660;28;20455;-68
2022/12/06 01:38:57;;;;;;;20.73;15.70;;;3.50;99.90;;;;;;5064352;28;20455;-68
2022/12/06 01:41:26;;;;;;;21.43;13.70;;;3.50;99.90;;;;;;5064392;28;20462;-68
2022/12/06 01:43:54;;;;;;;19.53;14.67;;;3.50;99.90;;;;;;5064314;28;20455;-68
2022/12/06 01:46:28;;;;;;;21.33;14.03;;;3.50;99.90;;;;;;5064546;28;20478;-69
2022/12/06 01:49:03;;;;;;;25.17;15.00;;;3.50;99.90;;;;;;5064030;28;20981;-68
2022/12/06 01:51:32;;;;;;;21.50;13.70;;;3.50;99.90;;;;;;5063756;28;20493;-69
2022/12/06 01:54:01;;;;;;;22.50;14.70;;;3.40;99.90;;;;;;5062573;28;20478;-69
2022/12/06 01:56:29;;;;;;;21.10;14.40;;;3.40;99.90;;;;;;5063073;28;20481;-68
2022/12/06 01:58:58;;;;;;;22.23;14.53;;;3.40;99.90;;;;;;5064390;28;20478;-68
2022/12/06 02:01:28;;;;;;;24.57;13.97;;;3.40;99.90;;;;;;5064347;28;20455;-68
2022/12/06 02:03:56;;;;;;;26.10;16.37;;;3.40;99.90;;;;;;5065907;28;20509;-69
2022/12/06 02:06:23;;;;;;;20.23;14.10;;;3.40;99.90;;;;;;5063860;28;20837;-69
2022/12/06 02:08:53;;;;;;;16.23;12.77;;;3.40;99.90;;;;;;5064087;28;20517;-68
2022/12/06 02:11:20;;;;;;;19.70;13.80;;;3.50;99.90;;;;;;5064367;28;20455;-68
2022/12/06 02:13:47;;;;;;;22.17;13.23;;;3.50;99.90;;;;;;5063342;28;20601;-68
2022/12/06 02:16:29;;;;;;;24.20;13.50;;;3.50;99.90;;;;;;5063882;28;20455;-68
2022/12/06 02:19:00;;;;;;;19.60;13.47;;;3.50;99.90;;;;;;5064379;28;20501;-69
2022/12/06 02:21:37;;;;;;;18.87;13.00;;;3.50;99.90;;;;;;5064018;28;20440;-68
2022/12/06 02:24:43;;;;;;;18.60;13.00;;;3.50;99.90;;;;;;5063689;28;20536;-68
2022/12/06 02:27:30;;;;;;;17.67;12.80;;;3.50;99.90;;;;;;5063206;28;20493;-67
2022/12/06 02:30:10;;;;;;;17.87;12.73;;;3.50;99.90;;;;;;5063997;28;20440;-68
2022/12/06 02:32:45;;;;;;;16.70;12.60;;;3.50;99.90;;;;;;5063836;28;20439;-67
2022/12/06 02:35:20;;;;;;;16.47;11.70;;;3.50;99.90;;;;;;5063628;28;20494;-69
2022/12/06 02:37:53;;;;;;;18.80;12.87;;;3.50;99.90;;;;;;5063136;28;20786;-68
2022/12/06 02:40:24;;;;;;;19.33;13.60;;;3.50;99.90;;;;;;5062957;28;20504;-68
2022/12/06 02:42:56;;;;;;;17.33;12.93;;;3.50;99.90;;;;;;5063887;28;20435;-69
2022/12/06 02:45:28;;;;;;;18.70;12.77;;;3.50;99.90;;;;;;5062920;28;20803;-68
2022/12/06 02:48:01;;;;;;;17.80;12.97;;;3.60;99.90;;;;;;5063304;28;20439;-69
2022/12/06 02:50:31;;;;;;;17.40;12.60;;;3.60;99.90;;;;;;5062978;28;20440;-68
2022/12/06 02:53:01;;;;;;;20.53;12.70;;;3.60;99.90;;;;;;5063140;28;20504;-67
2022/12/06 02:55:29;;;;;;;16.87;13.67;;;3.60;99.90;;;;;;5062566;28;20483;-67
2022/12/06 02:57:57;;;;;;;18.67;13.70;;;3.60;99.90;;;;;;5062843;28;20467;-67
2022/12/06 03:00:33;;;;;;;18.40;13.57;;;3.60;99.90;;;;;;5062916;28;20527;-68
2022/12/06 03:03:22;;;;;;;20.73;13.80;;;3.60;99.90;;;;;;5062740;28;20443;-68
2022/12/06 03:06:06;;;;;;;19.90;14.37;;;3.60;99.90;;;;;;5063182;28;20508;-69
2022/12/06 03:08:41;;;;;;;20.70;14.50;;;3.50;99.90;;;;;;5062730;28;20439;-68
2022/12/06 03:11:08;;;;;;;22.60;14.43;;;3.50;99.90;;;;;;5062757;28;20496;-68
2022/12/06 03:13:44;;;;;;;23.93;16.30;;;3.60;99.90;;;;;;5063100;28;20781;-68
2022/12/06 03:16:19;;;;;;;22.10;15.53;;;3.60;99.90;;;;;;5062626;28;20493;-68
2022/12/06 03:18:54;;;;;;;21.60;15.60;;;3.60;99.90;;;;;;5062899;28;20508;-68
2022/12/06 03:21:25;;;;;;;24.80;16.97;;;3.60;99.90;;;;;;5062758;28;20447;-69
2022/12/06 03:23:53;;;;;;;25.17;16.00;;;3.60;99.90;;;;;;5062357;28;20517;-69
2022/12/06 03:26:23;;;;;;;26.03;16.77;;;3.50;99.90;;;;;;5062909;28;20455;-68
2022/12/06 03:28:53;;;;;;;26.73;17.10;;;3.50;99.90;;;;;;5062727;28;20455;-68
2022/12/06 03:31:21;;;;;;;26.90;16.97;;;3.50;99.90;;;;;;5062433;28;20949;-69
2022/12/06 03:33:55;;;;;;;23.70;15.40;;;3.50;99.90;;;;;;5062558;28;20455;-68
2022/12/06 03:36:24;;;;;;;28.77;18.57;;;3.40;99.90;;;;;;5062684;28;20613;-68
2022/12/06 03:38:55;;;;;;;30.10;17.70;;;3.30;99.90;;;;;;5062338;28;20455;-68
2022/12/06 03:41:26;;;;;;;25.40;16.57;;;3.30;99.90;;;;;;5062267;28;20561;-68
2022/12/06 03:43:54;;;;;;;23.03;15.83;;;3.20;99.90;;;;;;5061661;28;20439;-69
2022/12/06 03:46:26;;;;;;;23.57;15.77;;;3.20;99.90;;;;;;5061805;28;20447;-67
2022/12/06 03:48:58;;;;;;;24.43;14.80;;;3.20;99.90;;;;;;5061226;28;20791;-68
2022/12/06 03:51:29;;;;;;;19.07;15.20;;;3.10;99.90;;;;;;5060392;28;20439;-68
2022/12/06 03:53:58;;;;;;;19.73;13.97;;;3.10;99.90;;;;;;5061386;28;20439;-67
2022/12/06 03:56:27;;;;;;;23.17;13.77;;;3.10;99.90;;;;;;5061560;28;20537;-68
2022/12/06 03:58:54;;;;;;;19.47;13.50;;;3.10;99.90;;;;;;5065303;28;20485;-67
2022/12/06 04:01:21;;;;;;;16.27;12.47;;;3.10;99.90;;;;;;5065409;28;20523;-68
2022/12/06 04:03:48;;;;;;;17.13;11.93;;;3.00;99.90;;;;;;5065258;28;20490;-68
2022/12/06 04:06:16;;;;;;;17.03;12.50;;;3.00;99.90;;;;;;5065035;28;20462;-69
2022/12/06 04:08:43;;;;;;;20.40;13.80;;;3.00;99.90;;;;;;5065641;28;20487;-69
2022/12/06 04:11:10;;;;;;;15.70;12.73;;;3.00;99.90;;;;;;5065947;28;20467;-68
2022/12/06 04:13:37;;;;;;;17.47;11.73;;;3.00;99.90;;;;;;5065652;28;20486;-68
2022/12/06 04:18:09;;;;;;;16.50;12.43;;;3.00;99.90;;;;;;5065846;28;20506;-67
2022/12/06 04:18:50;;;;;;;18.83;12.90;;;2.90;99.90;;;;;;5065097;28;20467;-68
2022/12/06 04:24:02;;;;;;;16.60;11.93;;;2.90;99.90;;;;;;5065834;28;20239;-69
2022/12/06 04:26:29;;;;;;;16.33;12.37;;;3.00;99.90;;;;;;5065262;28;20526;-68
2022/12/06 04:39:55;;;;;;;14.73;10.90;;;3.00;99.90;;;;;;5065227;28;20426;-68
2022/12/06 04:45:08;;;;;;;17.20;11.33;;;3.00;99.90;;;;;;5064844;28;20469;-68
2022/12/06 04:47:34;;;;;;;15.23;10.77;;;2.90;99.90;;;;;;5064153;28;20538;-68
2022/12/06 04:50:01;;;;;;;15.53;10.50;;;2.90;99.90;;;;;;5063740;28;20469;-67
2022/12/06 04:52:29;;;;;;;14.13;10.17;;;2.90;99.90;;;;;;5063494;28;20483;-68
2022/12/06 04:54:56;;;;;;;12.83;9.20;;;2.90;99.90;;;;;;5065508;28;20567;-68
2022/12/06 04:57:23;;;;;;;12.90;9.63;;;2.80;99.90;;;;;;5064715;28;20526;-68
2022/12/06 04:59:50;;;;;;;12.37;9.10;;;2.80;99.90;;;;;;5064663;28;20501;-68
2022/12/06 05:02:17;;;;;;;12.60;9.10;;;2.80;99.90;;;;;;5064506;28;20824;-68
2022/12/06 05:04:43;;;;;;;13.30;10.10;;;2.80;99.90;;;;;;5064152;28;20512;-68
2022/12/06 05:07:11;;;;;;;13.33;10.17;;;2.80;99.90;;;;;;5063558;28;20550;-68
2022/12/06 05:09:40;;;;;;;16.67;10.97;;;2.80;99.90;;;;;;5062820;28;20455;-68
2022/12/06 05:12:07;;;;;;;13.67;8.70;;;2.80;99.90;;;;;;5064741;28;20470;-69
2022/12/06 05:14:34;;;;;;;16.07;10.67;;;2.80;99.90;;;;;;5064509;28;20489;-69
2022/12/06 05:17:01;;;;;;;13.33;10.60;;;2.80;99.90;;;;;;5064064;28;20486;-69
2022/12/06 05:19:28;;;;;;;14.57;10.70;;;2.80;99.90;;;;;;5064624;28;20451;-69
2022/12/06 05:21:55;;;;;;;15.20;10.40;;;2.80;99.90;;;;;;5064207;28;20489;-69
2022/12/06 05:24:22;;;;;;;14.53;10.57;;;2.80;99.90;;;;;;5063916;28;20562;-69
2022/12/06 05:26:50;;;;;;;12.53;10.20;;;2.80;99.90;;;;;;5064116;28;20550;-69
2022/12/06 05:29:18;;;;;;;11.90;8.87;;;2.80;99.90;;;;;;5064502;28;20554;-69
2022/12/06 05:31:45;;;;;;;14.03;9.40;;;2.80;99.90;;;;;;5063088;28;20924;-69
2022/12/06 05:34:12;;;;;;;13.13;9.43;;;2.80;99.90;;;;;;5063669;28;20825;-67
2022/12/06 05:36:39;;;;;;;13.13;9.30;;;2.80;99.90;;;;;;5062977;28;20570;-67
2022/12/06 05:39:05;;;;;;;12.60;9.47;;;2.80;99.90;;;;;;5062950;28;20549;-68
2022/12/06 05:41:32;;;;;;;13.80;9.93;;;2.80;99.90;;;;;;5063790;28;20974;-68
2022/12/06 05:44:00;;;;;;;13.03;9.00;;;2.80;99.90;;;;;;5063053;28;20538;-68
2022/12/06 05:46:27;;;;;;;12.43;9.30;;;2.80;99.90;;;;;;5063533;28;20486;-68
2022/12/06 05:48:54;;;;;;;11.93;9.47;;;2.80;99.90;;;;;;5063996;28;20542;-69
2022/12/06 05:51:21;;;;;;;14.10;9.23;;;2.80;99.90;;;;;;5063242;28;20939;-68
2022/12/06 05:53:48;;;;;;;12.73;9.30;;;2.80;99.90;;;;;;5063318;28;20534;-69
2022/12/06 05:56:15;;;;;;;12.80;9.90;;;2.80;99.90;;;;;;5062705;28;20515;-68
2022/12/06 05:58:41;;;;;;;12.30;9.50;;;2.80;99.90;;;;;;5061316;28;20483;-68
2022/12/06 06:01:10;;;;;;;14.23;10.00;;;2.80;99.90;;;;;;5063371;28;20999;-68
2022/12/06 06:03:37;;;;;;;13.47;8.93;;;2.80;99.90;;;;;;5062603;28;20550;-68
2022/12/06 06:06:04;;;;;;;13.33;8.93;;;2.80;99.90;;;;;;5062791;28;20498;-68
2022/12/06 06:08:32;;;;;;;11.37;8.73;;;2.80;99.90;;;;;;5063067;28;20546;-67
2022/12/06 06:10:59;;;;;;;13.13;9.57;;;2.80;99.90;;;;;;5061701;28;20546;-68
2022/12/06 06:13:26;;;;;;;12.37;8.07;;;2.80;99.90;;;;;;5062915;28;20847;-68
2022/12/06 06:15:53;;;;;;;13.60;9.23;;;2.80;99.90;;;;;;5062892;28;20521;-69
2022/12/06 06:18:21;;;;;;;13.20;9.63;;;2.80;99.90;;;;;;5062752;28;20542;-69
2022/12/06 06:20:50;;;;;;;14.37;9.40;;;2.80;99.90;;;;;;5062437;28;20585;-68
2022/12/06 06:23:17;;;;;;;12.93;10.47;;;2.90;99.90;;;;;;5062361;28;20479;-68
2022/12/06 06:25:44;;;;;;;15.70;10.10;;;2.90;99.90;;;;;;5062269;28;20829;-68
2022/12/06 06:28:11;;;;;;;15.17;9.73;;;3.00;99.90;;;;;;5062271;28;20900;-68
2022/12/06 06:30:37;;;;;;;14.13;9.40;;;3.00;99.90;;;;;;5061193;28;20459;-67
2022/12/06 06:33:04;;;;;;;11.83;9.70;;;3.00;99.90;;;;;;5061922;28;20538;-69
2022/12/06 06:35:32;;;;;;;16.97;10.70;;;3.00;99.90;;;;;;5062113;28;20569;-69
2022/12/06 06:37:59;;;;;;;17.60;11.67;;;3.00;99.90;;;;;;5062387;28;20857;-69
2022/12/06 06:40:26;;;;;;;19.37;11.63;;;3.00;99.90;;;;;;5061802;28;20455;-69
2022/12/06 06:42:53;;;;;;;16.37;12.40;;;3.00;99.90;;;;;;5063376;28;20470;-68
2022/12/06 06:45:20;;;;;;;16.07;11.80;;;3.00;99.90;;;;;;5063433;28;20514;-69
2022/12/06 06:47:47;;;;;;;14.80;10.23;;;3.00;99.90;;;;;;5063096;28;20522;-69
2022/12/06 06:50:14;;;;;;;12.93;9.27;;;3.00;99.90;;;;;;5063792;28;20495;-68
2022/12/06 06:52:42;;;;;;;11.60;8.90;;;3.10;99.90;;;;;;5063458;28;20542;-68
2022/12/06 06:55:09;;;;;;;10.70;8.33;;;3.00;99.90;;;;;;5062649;28;20494;-68
2022/12/06 06:57:36;;;;;;;12.30;8.33;;;3.00;99.90;;;;;;5063085;28;20510;-67
2022/12/06 07:00:05;;;;;;;11.57;8.57;;;3.00;99.90;;;;;;5065832;28;20495;-70
2022/12/06 07:02:31;;;;;;;12.77;8.57;;;3.00;99.90;;;;;;5063428;28;20494;-69
2022/12/06 07:04:58;;;;;;;12.70;8.40;;;3.00;99.90;;;;;;5063528;28;20542;-68
2022/12/06 07:07:25;;;;;;;10.07;7.97;;;3.00;99.90;;;;;;5067238;28;20490;-69
2022/12/06 07:09:53;;;;;;;10.67;7.73;;;3.00;99.90;;;;;;5064505;28;20475;-69
2022/12/06 07:12:20;;;;;;;10.00;7.97;;;3.10;99.90;;;;;;5063156;28;20490;-68
2022/12/06 07:14:47;;;;;;;10.30;7.70;;;3.10;99.90;;;;;;5063385;28;20459;-68
2022/12/06 07:17:14;;;;;;;9.93;7.77;;;3.10;99.90;;;;;;5062709;28;20515;-69
2022/12/06 07:19:40;;;;;;;12.40;9.47;;;3.10;99.90;;;;;;5061112;28;20512;-69
2022/12/06 07:22:09;;;;;;;11.57;8.30;;;3.10;99.90;;;;;;5062012;28;20844;-69
2022/12/06 07:24:36;;;;;;;10.70;8.50;;;3.10;99.90;;;;;;5061771;28;20495;-69
2022/12/06 07:27:04;;;;;;;10.80;8.70;;;3.10;99.90;;;;;;5061864;28;20543;-69
2022/12/06 07:29:31;;;;;;;13.20;10.47;;;3.00;99.90;;;;;;5061830;28;20542;-68
2022/12/06 07:31:58;;;;;;;12.00;10.03;;;3.00;99.90;;;;;;5061496;28;20483;-68
2022/12/06 07:34:24;;;;;;;12.60;9.37;;;3.00;99.90;;;;;;5062130;28;20459;-69
2022/12/06 07:36:51;;;;;;;11.87;9.23;;;3.10;99.90;;;;;;5062203;28;21034;-69
2022/12/06 07:39:18;;;;;;;12.63;10.20;;;3.10;99.90;;;;;;5062521;28;20475;-69
2022/12/06 07:47:15;;;;;;;10.70;7.73;;;3.10;99.90;;;;;;5060852;28;20454;-68
2022/12/06 07:49:42;;;;;;;8.97;7.40;;;3.10;99.90;;;;;;5061826;28;20805;-68
2022/12/06 07:52:09;;;;;;;10.90;7.57;;;3.10;99.90;;;;;;5060930;28;20495;-69
2022/12/06 07:54:36;;;;;;;8.87;7.50;;;3.10;99.90;;;;;;5060825;28;20490;-69
2022/12/06 07:57:03;;;;;;;9.10;7.23;;;3.10;99.90;;;;;;5060304;28;20566;-68
2022/12/06 07:59:31;;;;;;;17.23;7.67;;;3.10;99.90;;;;;;5061307;28;20526;-68
2022/12/06 08:01:58;;;;;;;10.73;7.60;;;3.10;99.90;;;;;;5060401;28;20530;-69
2022/12/06 08:04:25;;;;;;;10.40;7.90;;;3.20;99.90;;;;;;5060738;28;20535;-67
2022/12/06 08:06:52;;;;;;;10.37;7.20;;;3.10;99.90;;;;;;5061088;28;20538;-69
2022/12/06 08:09:19;;;;;;;11.00;8.13;;;3.10;99.90;;;;;;5060596;28;20753;-68
2022/12/06 08:11:46;;;;;;;11.00;8.23;;;3.10;99.90;;;;;;5060438;28;20924;-68
2022/12/06 08:14:14;;;;;;;13.30;8.87;;;3.20;99.90;;;;;;5060935;28;20487;-68
2022/12/06 08:16:42;;;;;;;11.80;9.50;;;3.10;99.90;;;;;;5060300;28;20475;-69
2022/12/06 08:19:09;;;;;;;12.00;8.93;;;3.10;99.90;;;;;;5061553;28;20479;-67
2022/12/06 08:21:36;;;;;;;13.47;10.13;;;3.20;99.90;;;;;;5059696;28;20885;-69
2022/12/06 08:24:04;;;;;;;11.80;9.90;;;3.20;99.90;;;;;;5055758;28;20479;-69
2022/12/06 08:26:30;;;;;;;10.70;8.30;;;3.20;99.90;;;;;;5055783;28;20465;-69
2022/12/06 08:29:00;;;;;;;12.57;8.90;;;3.20;99.90;;;;;;5055109;28;20549;-70
2022/12/06 08:31:28;;;;;;;14.37;8.93;;;3.20;99.90;;;;;;5056172;28;20891;-69
2022/12/06 08:33:56;;;;;;;12.43;8.00;;;3.20;99.90;;;;;;5055586;28;20959;-70
2022/12/06 08:36:24;;;;;;;9.70;7.90;;;3.20;99.90;;;;;;5054796;28;20493;-69
2022/12/06 08:38:51;;;;;;;17.83;9.87;;;3.20;99.90;;;;;;5054713;28;20454;-69
2022/12/06 08:44:03;;;;;;;11.13;9.20;;;3.20;99.90;;;;;;5056552;28;20426;-69
2022/12/06 08:46:31;;;;;;;11.90;9.10;;;3.20;99.90;;;;;;5059163;28;20783;-69
2022/12/06 08:49:00;;;;;;;10.10;8.40;;;3.20;99.90;;;;;;5059486;28;20813;-70
2022/12/06 08:51:27;;;;;;;13.03;7.57;;;3.20;99.90;;;;;;5058938;28;20455;-69
2022/12/06 08:53:55;;;;;;;7.57;6.77;;;3.20;99.90;;;;;;5059199;28;20546;-69
2022/12/06 08:56:22;;;;;;;9.73;6.87;;;3.20;99.90;;;;;;5058966;28;20785;-68
2022/12/06 08:58:49;;;;;;;7.07;6.10;;;3.20;99.90;;;;;;5058751;28;20551;-69
2022/12/06 09:01:19;;;;;;;10.23;7.50;;;3.20;99.90;;;;;;5058890;28;20554;-70
2022/12/06 09:03:46;;;;;;;7.10;6.30;;;3.20;99.90;;;;;;5059185;28;20546;-69
2022/12/06 09:06:15;;;;;;;10.13;6.60;;;3.10;99.90;;;;;;5058340;28;20477;-69
2022/12/06 09:08:42;;;;;;;7.03;5.90;;;3.10;99.90;;;;;;5059005;28;20490;-69
2022/12/06 09:11:09;;;;;;;8.73;6.37;;;3.10;99.90;;;;;;5059902;28;20545;-69
2022/12/06 09:13:37;;;;;;;11.97;7.00;;;3.10;99.90;;;;;;5059190;28;20785;-69
2022/12/06 09:16:07;;;;;;;7.50;6.10;;;3.10;99.90;;;;;;5058504;28;20796;-71
2022/12/06 09:18:34;;;;;;;8.73;6.67;;;3.10;99.90;;;;;;5058406;28;20529;-68
2022/12/06 09:21:05;;;;;;;8.70;6.23;;;3.10;99.90;;;;;;5058515;28;20463;-68
2022/12/06 09:23:34;;;;;;;8.00;6.03;;;3.10;99.90;;;;;;5058797;28;20925;-69
2022/12/06 09:26:01;;;;;;;6.50;5.57;;;3.10;99.90;;;;;;5059599;28;20975;-69
2022/12/06 09:28:29;;;;;;;8.47;5.80;;;3.10;99.90;;;;;;5058999;28;20550;-69
2022/12/06 09:30:56;;;;;;;7.43;5.17;;;3.10;99.90;;;;;;5058643;28;20566;-69
2022/12/06 09:33:24;;;;;;;8.40;6.73;;;3.10;99.90;;;;;;5058145;28;20455;-68
2022/12/06 09:35:52;;;;;;;7.23;6.00;;;3.20;99.90;;;;;;5058244;28;20494;-69
2022/12/06 09:38:22;;;;;;;10.00;6.37;;;3.30;99.90;;;;;;5058032;28;20591;-69
2022/12/06 09:41:04;;;;;;;9.80;6.57;;;3.30;99.90;;;;;;5058187;28;20453;-69
2022/12/06 09:43:44;;;;;;;10.50;7.60;;;3.30;99.90;;;;;;5057997;28;20770;-69
2022/12/06 09:46:23;;;;;;;11.83;7.60;;;3.30;99.90;;;;;;5058181;28;20526;-70
2022/12/06 09:49:11;;;;;;;10.47;7.70;;;3.30;99.90;;;;;;5057549;28;20530;-69
2022/12/06 09:51:54;;;;;;;12.23;7.10;;;3.30;99.90;;;;;;5057953;28;20837;-69
2022/12/06 09:54:37;;;;;;;8.90;5.87;;;3.40;99.90;;;;;;5058203;28;20486;-70
2022/12/06 09:57:12;;;;;;;7.20;5.83;;;3.40;99.90;;;;;;5058674;28;20473;-68
2022/12/06 09:59:49;;;;;;;11.43;6.47;;;3.40;99.90;;;;;;5058229;28;20522;-70
2022/12/06 10:02:31;;;;;;;7.33;6.63;;;3.30;99.90;;;;;;5058431;28;20443;-69
2022/12/06 10:05:12;;;;;;;7.40;5.47;;;3.40;99.90;;;;;;5057622;28;20940;-69
2022/12/06 10:07:50;;;;;;;7.47;5.97;;;3.30;99.90;;;;;;5057846;28;20441;-70
2022/12/06 10:10:22;;;;;;;8.33;5.80;;;3.40;99.90;;;;;;5058587;28;20443;-70
2022/12/06 10:13:00;;;;;;;8.33;5.90;;;3.30;99.90;;;;;;5057434;28;20833;-69
2022/12/06 10:15:34;;;;;;;8.80;6.10;;;3.30;99.90;;;;;;5057485;28;20475;-68
2022/12/06 10:18:19;;;;;;;7.10;5.77;;;3.30;99.90;;;;;;5057650;28;20478;-69
2022/12/06 10:20:52;;;;;;;7.20;5.73;;;3.30;99.90;;;;;;5058876;28;20446;-70
2022/12/06 10:23:32;;;;;;;9.73;6.53;;;3.20;99.90;;;;;;5058388;28;20559;-68
2022/12/06 10:26:07;;;;;;;9.70;6.23;;;3.30;99.90;;;;;;5057338;28;20530;-69
2022/12/06 10:28:44;;;;;;;7.07;5.50;;;3.20;99.90;;;;;;5057897;28;20767;-69
2022/12/06 10:31:20;;;;;;;9.50;6.90;;;3.20;99.90;;;;;;5057614;28;20804;-69
2022/12/06 10:33:54;;;;;;;9.33;6.20;;;3.20;99.90;;;;;;5058411;28;20534;-69
2022/12/06 10:36:33;;;;;;;9.70;7.00;;;3.20;99.90;;;;;;5058413;28;20467;-69
2022/12/06 10:39:08;;;;;;;9.10;6.90;;;3.20;99.90;;;;;;5057778;28;20453;-68
2022/12/06 10:41:41;;;;;;;12.60;8.60;;;3.30;99.90;;;;;;5057165;28;20576;-67
2022/12/06 10:44:19;;;;;;;9.20;7.53;;;3.30;99.90;;;;;;5057137;28;20443;-66
2022/12/06 10:47:05;;;;;;;8.43;6.47;;;3.40;99.90;;;;;;5056667;28;20526;-68
2022/12/06 10:49:41;;;;;;;8.10;6.37;;;3.50;99.90;;;;;;5056186;28;20442;-68
2022/12/06 10:52:22;;;;;;;12.87;6.60;;;3.40;99.90;;;;;;5055908;28;20549;-68
2022/12/06 10:54:57;;;;;;;9.00;7.47;;;3.40;99.90;;;;;;5055647;28;20531;-67
2022/12/06 10:57:32;;;;;;;10.70;6.70;;;3.40;99.90;;;;;;5055667;28;20476;-69
2022/12/06 11:00:05;;;;;;;8.37;6.73;;;3.40;99.90;;;;;;5055890;28;20923;-67
2022/12/06 11:02:39;;;;;;;7.87;6.33;;;3.40;99.90;;;;;;5055809;28;20466;-70
2022/12/06 11:05:17;;;;;;;11.00;8.00;;;3.30;99.90;;;;;;5055445;28;20442;-67
2022/12/06 11:07:47;;;;;;;11.90;7.70;;;3.40;99.90;;;;;;5054969;28;20471;-68
2022/12/06 11:10:18;;;;;;;10.83;8.00;;;3.40;99.90;;;;;;5055554;28;20467;-68
2022/12/06 11:12:45;;;;;;;11.37;8.47;;;3.40;99.90;;;;;;5055456;28;20771;-69
2022/12/06 11:15:20;;;;;;;12.37;8.30;;;3.40;99.90;;;;;;5055478;28;20557;-69
2022/12/06 11:17:52;;;;;;;11.70;8.83;;;3.40;99.90;;;;;;5055413;28;20795;-67
2022/12/06 11:20:26;;;;;;;10.73;7.70;;;3.40;99.90;;;;;;5055166;28;20439;-69
2022/12/06 11:23:04;;;;;;;10.70;9.23;;;3.30;99.90;;;;;;5055851;28;20882;-68
2022/12/06 11:25:40;;;;;;;11.93;8.00;;;3.30;99.90;;;;;;5055511;28;20577;-69
2022/12/06 11:28:20;;;;;;;10.80;8.70;;;3.30;99.90;;;;;;5055040;28;20446;-67
2022/12/06 11:30:51;;;;;;;10.30;8.57;;;3.40;99.90;;;;;;5055425;28;20443;-68
2022/12/06 11:33:20;;;;;;;9.57;7.37;;;3.40;99.90;;;;;;5054830;28;20900;-69
2022/12/06 11:35:47;;;;;;;10.83;7.43;;;3.40;99.90;;;;;;5055631;28;20471;-68
2022/12/06 11:38:16;;;;;;;15.93;10.27;;;3.40;99.90;;;;;;5054702;28;20650;-68
2022/12/06 11:40:46;;;;;;;11.40;8.23;;;3.40;99.90;;;;;;5054521;28;20485;-68
2022/12/06 11:43:17;;;;;;;10.60;8.20;;;3.50;99.90;;;;;;5055015;28;20475;-68
2022/12/06 11:45:45;;;;;;;11.57;7.70;;;3.60;99.90;;;;;;5054889;28;20457;-67
2022/12/06 11:48:17;;;;;;;11.33;8.27;;;3.60;99.90;;;;;;5055165;28;20542;-68
2022/12/06 11:50:45;;;;;;;10.40;7.57;;;3.60;99.90;;;;;;5054850;28;20937;-68
2022/12/06 11:53:19;;;;;;;10.70;6.90;;;3.60;99.90;;;;;;5055408;28;20559;-69
2022/12/06 11:55:50;;;;;;;11.40;7.77;;;3.60;99.90;;;;;;5054882;28;20447;-67
2022/12/06 11:58:25;;;;;;;9.00;7.33;;;3.50;99.90;;;;;;5054508;28;20887;-68
2022/12/06 12:00:58;;;;;;;13.27;6.93;;;3.50;99.90;;;;;;5054897;28;20537;-68
2022/12/06 12:03:31;;;;;;;8.40;6.83;;;3.50;99.90;;;;;;5055005;28;20557;-68
2022/12/06 12:06:20;;;;;;;9.10;7.00;;;3.40;99.90;;;;;;5054584;28;20943;-68
2022/12/06 12:08:56;;;;;;;7.93;6.43;;;3.40;99.90;;;;;;5056308;28;20807;-69
2022/12/06 12:11:26;;;;;;;9.43;7.43;;;3.40;99.90;;;;;;5055035;28;20442;-68
2022/12/06 12:13:57;;;;;;;10.47;7.47;;;3.40;99.90;;;;;;5055426;28;20467;-68
2022/12/06 12:16:27;;;;;;;8.40;7.20;;;3.40;99.90;;;;;;5055549;28;20446;-67
2022/12/06 12:18:58;;;;;;;13.50;7.90;;;3.40;99.90;;;;;;5057080;28;20549;-67
2022/12/06 12:21:46;;;;;;;9.47;6.70;;;3.40;99.90;;;;;;5059108;28;20542;-68
2022/12/06 12:24:45;;;;;;;8.03;6.40;;;3.40;99.90;;;;;;5054052;28;20577;-68
2022/12/06 12:27:36;;;;;;;7.50;6.17;;;3.50;99.90;;;;;;5053336;28;20459;-69
2022/12/06 12:30:26;;;;;;;9.60;6.47;;;3.50;99.90;;;;;;5058671;28;20453;-68
2022/12/06 12:33:17;;;;;;;6.37;5.70;;;3.50;99.90;;;;;;5062828;28;20971;-68
2022/12/06 12:35:47;;;;;;;6.30;5.40;;;3.50;99.90;;;;;;5058775;28;20765;-68
2022/12/06 12:38:20;;;;;;;7.10;5.30;;;3.40;99.90;;;;;;5058565;28;20478;-68
2022/12/06 12:40:50;;;;;;;5.67;5.07;;;3.40;99.90;;;;;;5058018;28;20606;-68
2022/12/06 12:43:21;;;;;;;5.27;4.70;;;3.40;99.90;;;;;;5057671;28;20517;-68
2022/12/06 12:46:07;;;;;;;5.67;4.90;;;3.40;99.90;;;;;;5058563;28;20459;-69
2022/12/06 12:48:34;;;;;;;6.33;4.80;;;3.40;99.90;;;;;;5058383;28;20440;-68
2022/12/06 12:51:05;;;;;;;7.23;5.20;;;3.40;99.90;;;;;;5058145;28;20554;-67
2022/12/06 12:53:37;;;;;;;6.07;4.80;;;3.40;99.90;;;;;;5058123;28;20537;-67
2022/12/06 12:56:08;;;;;;;5.27;4.50;;;3.40;99.90;;;;;;5058335;28;20497;-68
2022/12/06 12:58:35;;;;;;;5.57;4.90;;;3.50;99.90;;;;;;5057950;28;20649;-68
2022/12/06 13:01:07;;;;;;;6.70;5.37;;;3.40;99.90;;;;;;5058122;28;20545;-68
2022/12/06 13:03:35;;;;;;;5.70;4.83;;;3.50;99.90;;;;;;5058818;28;20530;-70
2022/12/06 13:06:03;;;;;;;5.60;5.10;;;3.50;99.90;;;;;;5058054;28;20594;-67
2022/12/06 13:08:34;;;;;;;4.93;4.43;;;3.50;99.90;;;;;;5057989;28;20534;-68
2022/12/06 13:11:03;;;;;;;4.90;4.47;;;3.50;99.90;;;;;;5058022;28;20549;-66
2022/12/06 13:13:35;;;;;;;6.00;4.90;;;3.50;99.90;;;;;;5058255;28;20463;-68
2022/12/06 13:16:06;;;;;;;5.30;4.67;;;3.50;99.90;;;;;;5058560;28;20466;-68
2022/12/06 13:18:38;;;;;;;6.40;5.17;;;3.50;99.90;;;;;;5058091;28;21053;-69
2022/12/06 13:21:16;;;;;;;6.07;5.40;;;3.50;99.90;;;;;;5058315;28;20812;-68
2022/12/06 13:23:43;;;;;;;10.30;7.67;;;3.40;99.90;;;;;;5057382;28;20548;-68
2022/12/06 13:26:17;;;;;;;9.97;5.17;;;3.40;99.90;;;;;;5057990;28;20850;-68